sim
Sign-in with your pilot id or email,
or register
Callsign
Passwort

Schedule Details

Flight Number: DLH2399
Departure: Basel Mulhouse-Freiburg EuroAirport (LFSB) at 15:35
Arrival: Munich Airport (EDDM) at 16:35
Route: Lufthansa Passenger Schedule. Enter filed route here before submitting Pirep.

Weather Information
Getting current METAR information for LFSB 281030Z VRB03KT 9999 FEW030 BKN060 14/06 Q1012 NOSIG
Getting current METAR information for EDDM 281020Z 25005KT 9999 FEW007 SCT045 09/07 Q1011 NOSIG

Schedule Frequency

Route Map